Time;durP1;ratioP1;P1;durP2;ratioP2;P2;SDS_P1;SDS_P2;PMS_P1;PMS_P2;Temp;Humidity;BMP_temperature;BMP_pressure;BME280_temperature;BME280_humidity;BME280_pressure;Samples;Min_cycle;Max_cycle;Signal;HPM_P1;HPM_P2
2022/01/15 00:00:11;;;;;;;3.80;1.10;;;;;;;1.68;65.12;142684.25;1679150;85;21113;-64
2022/01/15 00:02:40;;;;;;;3.60;0.93;;;;;;;1.71;65.14;142690.47;1657859;85;21054;-63
2022/01/15 00:05:09;;;;;;;2.45;1.00;;;;;;;1.74;64.29;142699.16;1669052;84;21063;-62
2022/01/15 00:07:36;;;;;;;4.25;1.07;;;;;;;1.74;64.37;142699.16;1650471;86;21496;-63
2022/01/15 00:10:04;;;;;;;3.98;1.45;;;;;;;1.73;63.73;142695.41;1647066;86;22194;-62
2022/01/15 00:12:39;;;;;;;5.05;1.32;;;;;;;1.76;63.41;142701.69;1652272;85;21000;-63
2022/01/15 00:15:03;;;;;;;6.97;1.65;;;;;;;1.75;63.29;142700.41;1649418;85;21641;-64
2022/01/15 00:17:50;;;;;;;6.42;1.35;;;;;;;1.76;63.11;142701.69;1661806;85;21600;-65
2022/01/15 00:20:19;;;;;;;4.50;1.40;;;;;;;1.77;62.85;142705.39;1660964;85;21088;-64
2022/01/15 00:22:48;;;;;;;3.02;1.00;;;;;;;1.77;63.13;142704.16;1662030;86;21326;-62
2022/01/15 00:25:18;;;;;;;3.08;1.10;;;;;;;1.74;63.14;142699.16;1662270;85;21064;-63
2022/01/15 00:27:46;;;;;;;4.83;1.45;;;;;;;1.76;63.24;142702.92;1662194;85;21565;-63
2022/01/15 00:30:14;;;;;;;3.85;1.25;;;;;;;1.75;63.35;142700.41;1662177;86;21040;-65
2022/01/15 00:32:42;;;;;;;8.13;1.17;;;;;;;1.74;63.57;142697.92;1662814;86;21020;-64
2022/01/15 00:35:12;;;;;;;5.87;1.25;;;;;;;1.74;63.59;142697.92;1678600;84;21584;-66
2022/01/15 00:37:41;;;;;;;5.20;1.27;;;;;;;1.74;63.42;142697.92;1678884;84;21055;-63
2022/01/15 00:40:13;;;;;;;6.95;1.32;;;;;;;1.74;63.58;142697.92;1649638;86;21060;-62
2022/01/15 00:42:41;;;;;;;11.00;1.75;;;;;;;1.72;63.76;142692.94;1678424;84;21139;-65
2022/01/15 00:45:14;;;;;;;3.58;1.20;;;;;;;1.71;63.67;142691.70;1649895;86;21039;-61
2022/01/15 00:47:39;;;;;;;6.10;1.60;;;;;;;1.71;63.65;142691.70;1678595;84;21023;-62
2022/01/15 00:50:09;;;;;;;5.37;1.00;;;;;;;1.71;63.95;142691.70;1649813;86;21212;-63
2022/01/15 00:52:37;;;;;;;3.95;1.37;;;;;;;1.70;63.99;142687.95;1678708;84;21098;-61
2022/01/15 00:55:06;;;;;;;3.75;1.27;;;;;;;1.67;64.30;142680.48;1649615;86;21063;-63
2022/01/15 00:57:33;;;;;;;5.12;1.30;;;;;;;1.64;64.53;142674.27;1678610;84;21540;-61
2022/01/15 01:00:00;;;;;;;7.55;1.25;;;;;;;1.62;64.48;142668.05;1649402;86;21116;-64
2022/01/15 01:02:26;;;;;;;5.05;1.60;;;;;;;1.63;64.66;142670.52;1688742;84;21059;-62
2022/01/15 01:04:53;;;;;;;5.85;1.50;;;;;;;1.64;64.66;142673.03;1688682;85;21054;-61
2022/01/15 01:07:20;;;;;;;4.30;1.50;;;;;;;1.62;63.31;142668.05;1688680;85;21054;-63
2022/01/15 01:23:16;;;;;;;5.47;1.32;;;;;;;1.64;62.82;142673.03;1693065;85;21048;-65
2022/01/15 01:25:46;;;;;;;4.08;1.22;;;;;;;1.64;63.20;142673.03;1688718;85;21030;-63
2022/01/15 01:28:23;;;;;;;11.68;1.95;;;;;;;1.63;63.26;142670.52;1692841;84;21111;-65
2022/01/15 01:30:49;;;;;;;6.70;1.35;;;;;;;1.63;63.81;142670.52;1686486;85;21528;-63
2022/01/15 01:33:32;;;;;;;9.30;1.50;;;;;;;1.58;64.07;142659.34;1688179;85;21062;-61
2022/01/15 01:35:50;;;;;;;7.12;1.55;;;;;;;1.53;64.66;142646.91;1691132;84;21032;-63
2022/01/15 01:38:32;;;;;;;4.50;1.30;;;;;;;1.55;64.82;142650.61;1688324;85;21084;-62
2022/01/15 01:40:52;;;;;;;3.98;1.30;;;;;;;1.49;65.05;142636.92;1690205;83;21028;-63
2022/01/15 01:45:51;;;;;;;7.00;1.62;;;;;;;1.49;65.79;142638.16;1692851;84;21507;-60
2022/01/15 01:48:17;;;;;;;4.17;1.20;;;;;;;1.49;66.17;142636.92;1688434;85;21054;-62
2022/01/15 01:50:45;;;;;;;9.35;1.27;;;;;;;1.46;67.04;142629.47;1684105;85;21121;-62
2022/01/15 01:53:11;;;;;;;6.75;1.20;;;;;;;1.42;68.96;142620.73;1684424;85;21069;-62
2022/01/15 01:55:38;;;;;;;6.17;1.30;;;;;;;1.37;70.36;142607.05;1684586;85;21094;-64
2022/01/15 01:58:04;;;;;;;3.67;1.30;;;;;;;1.20;72.22;142566.02;1685016;85;21018;-62
2022/01/15 02:00:32;;;;;;;4.85;1.32;;;;;;;1.07;73.84;142536.16;1684626;85;21536;-61
2022/01/15 02:02:59;;;;;;;3.65;1.22;;;;;;;0.97;74.72;142511.27;1690209;83;21113;-63
2022/01/15 02:05:27;;;;;;;6.67;1.27;;;;;;;0.93;75.47;142501.30;1694371;85;21048;-63
2022/01/15 02:08:16;;;;;;;4.40;1.27;;;;;;;0.92;75.81;142498.83;1694611;84;21055;-63
2022/01/15 02:10:43;;;;;;;9.30;1.42;;;;;;;0.91;75.95;142496.31;1571398;91;21160;-61
2022/01/15 02:13:13;;;;;;;3.35;1.20;;;;;;;0.89;76.08;142491.38;1544980;93;21060;-62
2022/01/15 02:15:41;;;;;;;5.92;1.17;;;;;;;0.94;75.78;142502.53;1544760;93;21092;-62
2022/01/15 02:18:08;;;;;;;4.53;1.25;;;;;;;0.93;75.30;142501.30;1544981;93;21558;-64
2022/01/15 02:21:00;;;;;;;5.00;1.55;;;;;;;0.97;75.27;142511.27;1544739;93;21129;-66
2022/01/15 02:25:58;;;;;;;3.58;1.42;;;;;;;0.94;76.73;142502.53;1544903;93;21104;-68
2022/01/15 02:28:35;;;;;;;8.73;1.87;;;;;;;0.92;77.84;142498.83;1545049;93;21070;-62
2022/01/15 02:31:09;;;;;;;5.58;1.32;;;;;;;0.87;78.43;142486.39;1541240;92;21065;-65
2022/01/15 02:33:37;;;;;;;3.10;1.42;;;;;;;0.80;78.44;142468.97;1558282;91;21103;-60
2022/01/15 02:36:08;;;;;;;4.97;1.60;;;;;;;0.73;78.24;142451.53;1553089;92;21056;-61
2022/01/15 02:38:40;;;;;;;4.37;1.20;;;;;;;0.70;78.19;142444.09;1556699;92;21152;-63
2022/01/15 02:41:08;;;;;;;6.92;1.72;;;;;;;0.69;78.05;142442.86;1541983;92;21029;-62
2022/01/15 02:43:35;;;;;;;7.03;1.87;;;;;;;0.71;77.57;142446.56;1532910;93;21100;-61
2022/01/15 02:46:19;;;;;;;4.05;1.00;;;;;;;0.74;77.20;142455.30;1541282;92;21106;-64
2022/01/15 02:48:52;;;;;;;3.00;1.30;;;;;;;0.80;76.52;142468.97;1557289;91;21561;-62
2022/01/15 02:51:21;;;;;;;7.33;1.20;;;;;;;0.82;75.71;142475.19;1558160;91;21067;-62
2022/01/15 02:53:54;;;;;;;4.15;1.47;;;;;;;0.86;74.69;142483.88;1557997;91;21526;-61
2022/01/15 02:56:18;;;;;;;7.35;1.45;;;;;;;0.92;74.25;142498.83;1557044;91;21118;-61
2022/01/15 02:58:44;;;;;;;8.05;1.70;;;;;;;0.98;73.70;142512.50;1568732;90;21088;-60
2022/01/15 03:01:11;;;;;;;4.42;1.20;;;;;;;1.04;72.92;142528.69;1571191;91;21132;-62
2022/01/15 03:03:37;;;;;;;5.90;1.60;;;;;;;1.10;72.68;142541.12;1571324;91;21075;-61
2022/01/15 03:06:14;;;;;;;3.55;1.32;;;;;;;1.15;72.39;142554.81;1571571;91;21079;-61
2022/01/15 03:08:43;;;;;;;3.08;1.20;;;;;;;1.18;71.79;142561.03;1571703;91;21596;-62
2022/01/15 03:11:12;;;;;;;3.77;1.37;;;;;;;1.21;71.35;142568.48;1571545;91;21141;-63
2022/01/15 03:13:42;;;;;;;5.33;1.72;;;;;;;1.23;71.14;142573.47;1571555;91;21090;-63
2022/01/15 03:16:13;;;;;;;3.87;1.65;;;;;;;1.27;71.09;142584.69;1571747;91;21078;-66
2022/01/15 03:18:40;;;;;;;3.37;1.32;;;;;;;1.28;70.85;142587.16;1563160;91;21071;-63
2022/01/15 03:21:08;;;;;;;4.53;1.17;;;;;;;1.29;70.70;142588.39;1524485;93;21581;-64
2022/01/15 03:23:35;;;;;;;5.35;1.22;;;;;;;1.28;70.66;142585.91;1544744;91;21711;-64
2022/01/15 03:26:03;;;;;;;3.92;1.45;;;;;;;1.25;70.34;142578.47;1557664;92;21136;-66
2022/01/15 03:28:29;;;;;;;6.58;1.25;;;;;;;1.24;70.19;142575.94;1556514;91;21138;-65
2022/01/15 03:30:56;;;;;;;4.75;1.20;;;;;;;1.23;69.90;142573.47;1558388;91;21652;-63
2022/01/15 03:33:22;;;;;;;5.37;1.30;;;;;;;1.26;69.60;142582.16;1558616;91;21543;-65
2022/01/15 03:35:49;;;;;;;3.87;1.10;;;;;;;1.32;69.25;142594.61;1558420;92;21075;-64
2022/01/15 03:38:16;;;;;;;5.53;1.57;;;;;;;1.37;69.11;142607.05;1557655;92;21138;-64
2022/01/15 03:40:43;;;;;;;4.20;1.60;;;;;;;1.41;68.84;142617.03;1558354;91;21099;-64
2022/01/15 03:43:10;;;;;;;5.28;1.42;;;;;;;1.39;68.70;142613.28;1571667;91;21035;-64
2022/01/15 03:45:38;;;;;;;4.92;1.10;;;;;;;1.34;68.88;142600.83;1571445;91;21070;-64
2022/01/15 03:48:06;;;;;;;4.15;1.32;;;;;;;1.34;68.50;142600.83;1571687;91;21062;-63
2022/01/15 03:50:32;;;;;;;8.58;1.82;;;;;;;1.32;68.60;142595.84;1571642;91;21085;-66
2022/01/15 03:52:59;;;;;;;3.62;1.72;;;;;;;1.33;68.44;142598.36;1571456;91;21097;-63
2022/01/15 03:55:25;;;;;;;5.08;2.37;;;;;;;1.37;68.29;142607.05;1571654;91;21387;-64
2022/01/15 03:57:52;;;;;;;4.37;1.40;;;;;;;1.42;67.97;142619.50;1571451;91;21093;-62
2022/01/15 04:00:26;;;;;;;4.72;1.30;;;;;;;1.46;67.88;142630.70;1571394;91;21074;-66
2022/01/15 04:02:56;;;;;;;3.58;1.10;;;;;;;1.49;67.56;142636.92;1571502;91;21078;-64
2022/01/15 04:05:23;;;;;;;4.87;1.35;;;;;;;1.49;67.31;142636.92;1571517;91;21114;-64
2022/01/15 04:07:50;;;;;;;4.37;1.00;;;;;;;1.50;67.02;142640.69;1571688;91;21070;-66
2022/01/15 04:10:19;;;;;;;2.52;0.90;;;;;;;1.50;67.17;142640.69;1572655;91;21129;-65
2022/01/15 04:12:46;;;;;;;4.65;1.20;;;;;;;1.48;66.89;142635.69;1573320;91;21073;-64
2022/01/15 04:15:16;;;;;;;4.42;1.07;;;;;;;1.50;66.98;142640.69;1607627;89;21142;-61
2022/01/15 04:17:47;;;;;;;6.53;1.67;;;;;;;1.54;66.94;142648.14;1607911;89;21087;-60
2022/01/15 04:20:18;;;;;;;2.40;1.12;;;;;;;1.58;66.91;142658.06;1607978;89;21030;-63
2022/01/15 04:22:43;;;;;;;5.37;1.27;;;;;;;1.56;66.60;142654.36;1607495;89;21059;-64
2022/01/15 04:25:11;;;;;;;2.90;1.05;;;;;;;1.59;66.65;142661.81;1607785;88;21091;-65
2022/01/15 04:27:39;;;;;;;5.85;1.20;;;;;;;1.61;66.50;142665.58;1607864;89;21051;-63
2022/01/15 04:30:12;;;;;;;3.50;1.30;;;;;;;1.63;66.41;142670.52;1607592;89;21532;-63
2022/01/15 04:32:40;;;;;;;2.08;0.88;;;;;;;1.62;66.45;142668.05;1607867;89;21054;-64
2022/01/15 04:35:08;;;;;;;3.95;1.02;;;;;;;1.57;66.52;142655.59;1607557;89;21070;-62
2022/01/15 04:37:39;;;;;;;2.95;1.15;;;;;;;1.57;66.53;142655.59;1607806;89;21070;-63
2022/01/15 04:40:07;;;;;;;6.97;1.32;;;;;;;1.57;66.54;142655.59;1607045;89;21564;-64
2022/01/15 04:42:35;;;;;;;4.20;1.22;;;;;;;1.58;66.38;142658.06;1607773;88;21157;-65
2022/01/15 04:45:03;;;;;;;4.83;1.70;;;;;;;1.56;66.61;142653.12;1607498;89;21062;-62
2022/01/15 04:47:31;;;;;;;5.17;1.55;;;;;;;1.54;66.62;142649.38;1607777;89;21034;-64
2022/01/15 04:49:58;;;;;;;4.92;1.40;;;;;;;1.56;66.64;142653.12;1607561;89;21122;-66
2022/01/15 04:52:26;;;;;;;6.33;1.50;;;;;;;1.59;66.23;142660.58;1607739;88;21243;-63
2022/01/15 04:54:53;;;;;;;4.42;1.40;;;;;;;1.64;66.24;142673.03;1607626;89;21047;-62
2022/01/15 04:57:19;;;;;;;5.60;1.40;;;;;;;1.65;66.35;142675.50;1607788;88;21063;-64
2022/01/15 04:59:46;;;;;;;6.17;1.27;;;;;;;1.66;66.45;142678.03;1607415;89;21066;-61
2022/01/15 05:02:13;;;;;;;4.45;1.45;;;;;;;1.66;66.59;142678.03;1607599;89;21103;-61
2022/01/15 05:04:40;;;;;;;5.25;1.30;;;;;;;1.68;66.86;142682.97;1607954;89;21097;-62
2022/01/15 05:07:08;;;;;;;7.08;1.45;;;;;;;1.67;67.10;142681.72;1607571;89;21030;-61
2022/01/15 05:09:35;;;;;;;3.90;1.47;;;;;;;1.64;67.28;142673.03;1607492;89;21078;-61
2022/01/15 05:12:08;;;;;;;2.85;1.22;;;;;;;1.62;67.64;142669.28;1607721;89;21071;-61
2022/01/15 05:14:31;;;;;;;4.22;1.40;;;;;;;1.61;67.67;142665.58;1606654;89;21102;-64
2022/01/15 05:16:57;;;;;;;3.40;0.93;;;;;;;1.60;67.90;142663.06;1607783;89;21030;-62
2022/01/15 05:19:24;;;;;;;2.90;1.52;;;;;;;1.59;68.03;142661.81;1607500;89;21071;-66
2022/01/15 05:21:54;;;;;;;6.20;1.50;;;;;;;1.58;68.07;142658.06;1607722;89;21070;-64
2022/01/15 05:24:19;;;;;;;5.00;1.42;;;;;;;1.58;68.06;142658.06;1607354;89;21556;-63
2022/01/15 05:26:47;;;;;;;5.00;1.20;;;;;;;1.60;67.85;142663.06;1607929;89;21496;-64
2022/01/15 05:29:14;;;;;;;3.25;1.07;;;;;;;1.61;67.35;142665.58;1607506;89;21062;-63
2022/01/15 05:31:40;;;;;;;4.45;1.50;;;;;;;1.63;67.30;142671.80;1607698;89;21161;-67
2022/01/15 05:34:06;;;;;;;3.42;1.40;;;;;;;1.65;66.96;142675.50;1607589;89;21093;-62
2022/01/15 05:36:33;;;;;;;5.42;1.20;;;;;;;1.69;66.74;142685.47;1607539;89;21063;-63
2022/01/15 05:39:00;;;;;;;5.65;1.30;;;;;;;1.72;66.09;142694.17;1607505;89;21118;-67
2022/01/15 05:41:28;;;;;;;4.05;1.40;;;;;;;1.75;65.91;142700.41;1607540;89;21122;-68
2022/01/15 05:44:00;;;;;;;4.45;1.22;;;;;;;1.77;65.88;142705.39;1607670;88;21070;-70
2022/01/15 05:46:23;;;;;;;2.92;1.10;;;;;;;1.77;65.32;142705.39;1606664;89;21074;-66
2022/01/15 05:48:49;;;;;;;4.60;1.00;;;;;;;1.80;65.05;142712.84;1607856;89;21042;-64
2022/01/15 05:51:15;;;;;;;2.83;1.07;;;;;;;1.83;64.97;142720.36;1607456;89;21564;-65
2022/01/15 05:53:42;;;;;;;5.72;1.62;;;;;;;1.86;64.87;142727.81;1607709;89;21062;-65
2022/01/15 05:56:08;;;;;;;4.85;1.27;;;;;;;1.87;64.70;142730.28;1607484;89;21078;-67
2022/01/15 06:36:41;;;;;;;5.17;1.30;;;;;;;2.11;64.58;142788.83;1595981;89;21590;-65
2022/01/15 06:39:08;;;;;;;7.80;3.67;;;;;;;2.18;63.92;142806.23;1561371;92;21641;-63
2022/01/15 06:41:34;;;;;;;4.45;2.20;;;;;;;2.21;63.98;142811.22;1556430;91;21068;-62
2022/01/15 06:44:01;;;;;;;4.22;1.52;;;;;;;2.22;64.26;142814.97;1553581;92;21041;-64
2022/01/15 06:46:28;;;;;;;2.98;1.25;;;;;;;2.16;64.76;142800.00;1579889;90;21096;-64
2022/01/15 06:48:54;;;;;;;3.05;1.32;;;;;;;2.15;65.07;142797.53;1584203;89;21563;-67
2022/01/15 06:51:21;;;;;;;5.17;1.65;;;;;;;2.22;65.08;142814.97;1574454;90;21049;-63
2022/01/15 06:53:47;;;;;;;4.62;1.35;;;;;;;2.24;65.26;142819.97;1576784;90;21139;-64
2022/01/15 06:56:14;;;;;;;4.95;1.80;;;;;;;2.20;65.51;142809.98;1576011;90;21107;-64
2022/01/15 06:58:40;;;;;;;5.60;1.60;;;;;;;2.20;65.83;142809.98;1563715;91;21529;-64
2022/01/15 07:01:07;;;;;;;4.33;1.87;;;;;;;2.26;65.80;142823.67;1576217;90;21100;-65
2022/01/15 07:03:33;;;;;;;7.15;2.60;;;;;;;2.27;65.90;142827.44;1561647;91;21067;-66
2022/01/15 07:05:59;;;;;;;6.03;1.72;;;;;;;2.29;65.93;142832.42;1605581;88;21135;-67
2022/01/15 07:08:27;;;;;;;7.75;1.90;;;;;;;2.26;65.98;142823.67;1595869;88;21052;-68
2022/01/15 07:10:54;;;;;;;6.78;1.50;;;;;;;2.24;66.09;142818.69;1595361;90;21041;-67
2022/01/15 07:13:20;;;;;;;4.15;1.50;;;;;;;2.22;66.17;142814.97;1616141;88;21068;-69
2022/01/15 07:15:49;;;;;;;3.47;1.60;;;;;;;2.19;66.44;142807.52;1598329;88;21083;-68
2022/01/15 07:18:16;;;;;;;5.15;1.17;;;;;;;2.20;66.56;142808.75;1591487;88;21542;-68
2022/01/15 07:20:43;;;;;;;3.42;1.55;;;;;;;2.21;66.75;142812.45;1593729;90;21576;-68
2022/01/15 07:23:10;;;;;;;5.00;1.90;;;;;;;2.20;66.82;142808.75;1591651;89;21044;-69
2022/01/15 07:25:37;;;;;;;4.35;1.40;;;;;;;2.22;66.85;142813.73;1590494;90;21050;-69
2022/01/15 07:28:04;;;;;;;2.80;1.37;;;;;;;2.22;66.73;142814.97;1591130;88;21051;-65
2022/01/15 07:30:30;;;;;;;9.05;1.50;;;;;;;2.28;66.81;142829.91;1591047;89;21047;-71
2022/01/15 07:32:56;;;;;;;4.65;1.77;;;;;;;2.38;66.73;142853.58;1589970;90;21062;-65
2022/01/15 07:35:23;;;;;;;4.42;1.72;;;;;;;2.38;66.46;142853.58;1590638;90;21043;-67
2022/01/15 07:37:50;;;;;;;2.60;1.37;;;;;;;2.39;66.49;142857.33;1592225;88;21159;-70
2022/01/15 07:40:17;;;;;;;8.48;2.10;;;;;;;2.41;66.49;142859.81;1594469;89;21115;-64
2022/01/15 07:42:44;;;;;;;5.35;1.37;;;;;;;2.41;66.38;142861.05;1568864;91;21059;-68
2022/01/15 07:45:16;;;;;;;4.20;1.60;;;;;;;2.38;66.44;142853.58;1548928;92;21097;-68
2022/01/15 07:47:44;;;;;;;3.70;1.55;;;;;;;2.36;66.67;142849.81;1565010;91;21102;-68
2022/01/15 07:50:17;;;;;;;5.42;1.40;;;;;;;2.33;66.52;142842.36;1618460;88;21543;-65
2022/01/15 07:52:44;;;;;;;6.90;1.80;;;;;;;2.34;66.78;142843.59;1618597;88;21044;-65
2022/01/15 07:55:11;;;;;;;5.05;1.87;;;;;;;2.36;66.89;142849.81;1614615;88;21062;-67
2022/01/15 07:57:43;;;;;;;5.60;2.35;;;;;;;2.36;66.89;142849.81;1559995;92;21125;-65
2022/01/15 08:00:09;;;;;;;5.47;1.50;;;;;;;2.32;66.99;142838.66;1593243;89;21021;-64
2022/01/15 08:02:38;;;;;;;4.80;1.90;;;;;;;2.36;67.01;142848.59;1592321;89;21076;-63
2022/01/15 08:05:07;;;;;;;6.35;2.22;;;;;;;2.34;67.11;142843.59;1580789;90;21061;-64
2022/01/15 08:07:33;;;;;;;7.70;2.52;;;;;;;2.37;67.02;142852.34;1593411;89;21026;-63
2022/01/15 08:10:00;;;;;;;5.45;1.75;;;;;;;2.39;67.22;142856.05;1560034;92;21045;-62
2022/01/15 08:12:26;;;;;;;7.67;2.27;;;;;;;2.35;67.29;142847.34;1593570;90;21262;-64
2022/01/15 08:14:55;;;;;;;4.53;1.80;;;;;;;2.37;67.40;142852.34;1561914;91;21070;-68
2022/01/15 08:17:22;;;;;;;4.17;1.60;;;;;;;2.42;67.42;142862.28;1589691;89;21027;-65
2022/01/15 08:19:48;;;;;;;5.70;2.42;;;;;;;2.40;67.77;142858.56;1588984;89;21011;-68
2022/01/15 08:22:15;;;;;;;6.50;1.45;;;;;;;2.36;68.26;142848.59;1591207;89;21584;-66
2022/01/15 08:24:42;;;;;;;4.62;1.60;;;;;;;2.30;68.78;142834.89;1588521;89;21083;-68
2022/01/15 08:27:08;;;;;;;7.67;1.45;;;;;;;2.29;69.15;142831.14;1579119;90;21047;-66
2022/01/15 08:29:35;;;;;;;6.10;1.50;;;;;;;2.29;69.55;142831.14;1577857;91;21187;-69
2022/01/15 08:32:02;;;;;;;6.22;1.95;;;;;;;2.25;70.01;142822.44;1577596;91;21059;-68
2022/01/15 08:34:29;;;;;;;4.08;1.55;;;;;;;2.24;70.51;142819.97;1614103;88;21088;-62
2022/01/15 08:36:55;;;;;;;6.03;2.35;;;;;;;2.28;70.71;142828.67;1604194;88;21055;-63
2022/01/15 08:39:22;;;;;;;8.95;1.85;;;;;;;2.35;70.80;142847.34;1593305;89;21072;-62
2022/01/15 08:41:48;;;;;;;5.97;1.47;;;;;;;2.37;70.93;142851.11;1584355;90;21571;-60
2022/01/15 08:44:19;;;;;;;3.05;1.12;;;;;;;2.29;71.63;142831.14;1587617;89;21112;-63
2022/01/15 08:46:46;;;;;;;5.62;2.25;;;;;;;2.19;72.19;142807.52;1586777;89;21005;-61
2022/01/15 08:49:13;;;;;;;5.22;1.67;;;;;;;2.08;72.95;142781.33;1560725;91;21529;-62
2022/01/15 08:51:40;;;;;;;7.90;2.00;;;;;;;2.02;73.61;142766.41;1571054;90;21119;-62
2022/01/15 08:54:07;;;;;;;6.37;1.90;;;;;;;2.01;73.80;142762.66;1540376;92;21144;-60
2022/01/15 08:56:33;;;;;;;4.97;1.75;;;;;;;1.99;73.97;142757.70;1579031;90;21571;-60
2022/01/15 08:59:00;;;;;;;4.05;1.67;;;;;;;2.02;74.22;142766.41;1573242;90;21053;-60
2022/01/15 09:01:26;;;;;;;5.03;1.67;;;;;;;2.08;74.01;142780.09;1593684;90;21124;-61
2022/01/15 09:03:55;;;;;;;5.20;2.22;;;;;;;2.16;73.59;142800.00;1590488;90;21164;-61
2022/01/15 09:06:23;;;;;;;7.17;1.40;;;;;;;2.25;73.34;142822.44;1572068;91;21575;-67
2022/01/15 09:08:50;;;;;;;5.00;1.65;;;;;;;2.31;72.98;142837.36;1618573;88;21063;-68
2022/01/15 09:11:17;;;;;;;9.95;2.22;;;;;;;2.34;72.96;142844.87;1616881;89;21201;-61
2022/01/15 09:13:45;;;;;;;4.53;1.85;;;;;;;2.30;73.15;142833.66;1596850;88;21098;-62
2022/01/15 09:16:12;;;;;;;5.40;1.50;;;;;;;2.27;73.73;142827.44;1592148;89;21069;-62
2022/01/15 09:18:38;;;;;;;6.58;2.00;;;;;;;2.26;74.03;142824.91;1559631;91;21022;-62
2022/01/15 09:21:05;;;;;;;6.97;1.80;;;;;;;2.38;73.75;142854.81;1536148;92;21564;-62
2022/01/15 09:23:32;;;;;;;5.50;1.75;;;;;;;2.57;72.61;142899.66;1536994;92;21061;-62
2022/01/15 09:25:59;;;;;;;6.03;1.62;;;;;;;2.61;71.99;142909.63;1588860;90;21069;-61
2022/01/15 09:31:12;;;;;;;14.25;1.77;;;;;;;2.63;71.71;142914.63;1597987;89;21052;-63
2022/01/15 09:33:38;;;;;;;7.58;1.42;;;;;;;2.57;72.33;142900.94;1618397;88;21108;-63
2022/01/15 09:36:05;;;;;;;2.72;1.47;;;;;;;2.53;73.19;142889.72;1616499;88;21046;-64
2022/01/15 09:38:33;;;;;;;2.83;1.20;;;;;;;2.48;74.00;142878.48;1593407;90;21076;-61
2022/01/15 09:40:59;;;;;;;4.67;1.42;;;;;;;2.43;74.77;142864.80;1587045;90;21052;-63
2022/01/15 09:43:27;;;;;;;6.22;1.50;;;;;;;2.39;75.13;142857.33;1594695;89;21048;-63
2022/01/15 09:45:54;;;;;;;3.77;1.70;;;;;;;2.46;75.33;142873.50;1585462;90;21020;-62
2022/01/15 09:48:25;;;;;;;4.92;1.57;;;;;;;2.57;75.01;142899.66;1584907;90;21077;-62
2022/01/15 09:50:53;;;;;;;6.05;1.77;;;;;;;2.68;74.85;142925.84;1587920;89;21044;-62
2022/01/15 09:53:20;;;;;;;4.42;1.57;;;;;;;2.81;74.39;142958.23;1596490;89;21072;-62
2022/01/15 09:55:48;;;;;;;5.37;1.70;;;;;;;2.78;74.08;142952.00;1586354;90;21060;-61
2022/01/15 09:58:16;;;;;;;6.97;2.50;;;;;;;2.72;74.48;142937.06;1589241;90;21131;-62
2022/01/15 10:00:44;;;;;;;4.60;1.67;;;;;;;2.72;74.49;142937.06;1588216;89;21087;-61
2022/01/15 10:03:11;;;;;;;4.10;1.30;;;;;;;2.68;74.67;142925.84;1559890;92;21142;-62
2022/01/15 10:05:38;;;;;;;4.25;1.75;;;;;;;2.66;74.93;142922.09;1593501;89;21110;-63
2022/01/15 10:08:10;;;;;;;4.78;1.52;;;;;;;2.67;74.38;142924.61;1607530;89;21092;-62
2022/01/15 10:10:40;;;;;;;5.67;1.70;;;;;;;2.66;74.34;142920.86;1618470;88;21639;-63
2022/01/15 10:13:22;;;;;;;7.80;2.30;;;;;;;2.70;74.10;142932.08;1618100;88;21099;-61
2022/01/15 10:16:03;;;;;;;6.33;1.72;;;;;;;2.72;73.87;142935.78;1614467;88;21116;-63
2022/01/15 10:18:33;;;;;;;3.58;1.55;;;;;;;2.85;72.99;142966.94;1602878;88;21080;-62
2022/01/15 10:21:17;;;;;;;6.47;1.87;;;;;;;2.80;71.98;142955.77;1613676;88;21052;-63
2022/01/15 10:23:50;;;;;;;7.75;2.08;;;;;;;2.80;72.03;142957.00;1614848;88;21051;-61
2022/01/15 10:26:21;;;;;;;4.85;1.57;;;;;;;2.84;71.73;142965.70;1610361;88;21024;-62
2022/01/15 10:29:01;;;;;;;5.70;1.90;;;;;;;2.77;71.85;142949.53;1615480;88;21459;-62
2022/01/15 10:31:41;;;;;;;6.70;1.62;;;;;;;2.70;72.20;142930.84;1611168;88;21095;-61
2022/01/15 10:34:32;;;;;;;5.70;1.70;;;;;;;2.57;73.05;142899.66;1609804;88;21007;-63
2022/01/15 10:37:12;;;;;;;5.53;2.20;;;;;;;2.43;74.05;142866.03;1585804;89;21043;-64
2022/01/15 10:39:40;;;;;;;5.25;1.60;;;;;;;2.32;75.05;142839.88;1589999;89;21102;-63
2022/01/15 10:42:15;;;;;;;5.95;1.85;;;;;;;2.23;76.26;142816.22;1589891;88;21060;-65
2022/01/15 10:44:44;;;;;;;9.05;1.90;;;;;;;2.08;77.28;142780.09;1588246;89;21050;-63
2022/01/15 10:47:16;;;;;;;6.10;1.80;;;;;;;2.02;77.76;142766.41;1593059;89;21088;-60
2022/01/15 10:49:44;;;;;;;4.35;1.52;;;;;;;2.03;78.27;142767.64;1588742;89;21083;-62
2022/01/15 10:52:24;;;;;;;6.87;1.90;;;;;;;1.99;78.82;142757.70;1588141;89;21089;-62
2022/01/15 10:55:15;;;;;;;4.97;2.45;;;;;;;1.99;78.75;142757.70;1593919;89;21048;-62
2022/01/15 10:58:00;;;;;;;6.03;2.20;;;;;;;2.08;79.04;142781.33;1594226;89;21546;-61
2022/01/15 11:00:42;;;;;;;8.55;2.25;;;;;;;2.09;79.29;142782.61;1584116;90;21095;-59
2022/01/15 11:03:12;;;;;;;3.87;1.72;;;;;;;2.12;79.54;142791.31;1586687;89;21024;-61
2022/01/15 11:05:43;;;;;;;6.45;1.87;;;;;;;2.14;79.41;142795.06;1561230;91;21041;-61
2022/01/15 11:08:26;;;;;;;9.50;2.37;;;;;;;2.18;79.12;142805.00;1537221;92;21107;-63
2022/01/15 11:10:56;;;;;;;7.00;2.60;;;;;;;2.27;78.78;142826.19;1533591;92;21078;-62
2022/01/15 11:13:33;;;;;;;5.90;2.05;;;;;;;2.39;77.81;142856.05;1537971;93;21065;-61
2022/01/15 11:16:08;;;;;;;9.38;2.10;;;;;;;2.46;77.33;142872.25;1592308;89;21028;-61
2022/01/15 11:18:39;;;;;;;5.67;1.80;;;;;;;2.49;75.64;142879.72;1590942;89;21563;-61
2022/01/15 11:21:10;;;;;;;4.90;1.55;;;;;;;2.51;75.31;142884.72;1591188;90;21060;-62
2022/01/15 11:23:40;;;;;;;5.53;2.00;;;;;;;2.54;74.43;142893.42;1587207;90;21100;-61
2022/01/15 11:26:14;;;;;;;5.75;2.12;;;;;;;2.55;74.29;142894.70;1587191;88;21019;-61
2022/01/15 11:28:44;;;;;;;5.87;2.15;;;;;;;2.61;74.20;142910.88;1592126;89;21090;-62
2022/01/15 11:31:27;;;;;;;6.00;2.20;;;;;;;2.64;73.08;142915.86;1559719;92;21102;-60
2022/01/15 11:33:58;;;;;;;3.98;1.32;;;;;;;2.59;72.80;142905.87;1591476;89;21091;-61
2022/01/15 11:36:40;;;;;;;3.90;1.72;;;;;;;2.59;72.55;142904.64;1592628;89;21097;-63
2022/01/15 11:39:12;;;;;;;;;;;;;;;2.57;72.62;142899.66;1590018;89;21108;-60
2022/01/15 11:41:42;;;;;;;7.12;1.90;;;;;;;2.64;72.32;142917.09;1592232;89;20412;-62
2022/01/15 11:44:19;;;;;;;4.15;1.90;;;;;;;2.67;72.17;142923.33;1595122;89;21081;-62
2022/01/15 11:46:52;;;;;;;4.17;1.90;;;;;;;2.69;72.24;142929.56;1594426;89;21079;-60
2022/01/15 11:49:44;;;;;;;5.35;1.87;;;;;;;2.66;72.25;142922.09;1584086;89;21132;-63
2022/01/15 11:52:22;;;;;;;5.30;2.05;;;;;;;2.63;72.06;142914.63;1585285;90;21047;-62
2022/01/15 11:55:05;;;;;;;4.12;1.85;;;;;;;2.65;72.09;142919.63;1588997;89;21059;-62
2022/01/15 11:57:45;;;;;;;5.47;2.10;;;;;;;2.61;72.06;142909.63;1585222;90;21020;-62
2022/01/15 12:00:21;;;;;;;5.25;1.85;;;;;;;2.59;72.39;142904.64;1593599;89;21092;-61
2022/01/15 12:03:04;;;;;;;6.05;2.05;;;;;;;2.54;72.85;142892.19;1559007;91;21057;-61
2022/01/15 12:05:35;;;;;;;3.02;1.47;;;;;;;2.48;73.01;142877.25;1545283;91;21129;-62
2022/01/15 12:08:12;;;;;;;5.65;1.60;;;;;;;2.42;73.32;142863.56;1537272;92;21104;-60
2022/01/15 12:10:52;;;;;;;6.72;2.00;;;;;;;2.36;73.90;142849.81;1543831;91;21066;-59
2022/01/15 12:13:26;;;;;;;11.15;3.27;;;;;;;2.36;74.28;142848.59;1594620;89;21035;-62
2022/01/15 12:16:28;;;;;;;4.30;1.72;;;;;;;2.28;74.42;142829.91;1599744;89;21522;-61
2022/01/15 12:18:58;;;;;;;6.20;1.80;;;;;;;2.27;74.67;142826.19;1592478;89;21056;-60
2022/01/15 12:21:47;;;;;;;5.05;1.92;;;;;;;2.27;74.49;142826.19;1587724;89;21040;-59
2022/01/15 12:24:37;;;;;;;5.28;1.95;;;;;;;2.26;74.63;142824.91;1590326;89;21533;-61
2022/01/15 12:27:07;;;;;;;5.70;2.17;;;;;;;2.37;74.65;142852.34;1590615;89;21089;-62
2022/01/15 12:29:35;;;;;;;7.58;2.10;;;;;;;2.34;73.67;142844.87;1604101;88;21072;-60
2022/01/15 12:32:03;;;;;;;5.37;1.47;;;;;;;2.30;73.80;142834.89;1585413;90;20997;-59
2022/01/15 12:34:30;;;;;;;3.67;1.40;;;;;;;2.28;73.53;142829.91;1585974;90;21146;-62
2022/01/15 12:36:56;;;;;;;3.40;1.42;;;;;;;2.31;73.57;142837.36;1584377;90;21008;-62
2022/01/15 12:39:36;;;;;;;3.75;1.22;;;;;;;2.32;73.51;142839.88;1591215;89;21096;-62
2022/01/15 12:42:06;;;;;;;3.05;1.30;;;;;;;2.30;73.44;142834.89;1586580;90;21005;-61
2022/01/15 12:44:53;;;;;;;6.65;1.55;;;;;;;2.33;73.26;142842.36;1608152;88;21032;-62